Time;durP1;ratioP1;P1;durP2;ratioP2;P2;SDS_P1;SDS_P2;PMS_P1;PMS_P2;Temp;Humidity;BMP_temperature;BMP_pressure;BME280_temperature;BME280_humidity;BME280_pressure;Samples;Min_cycle;Max_cycle;Signal;HPM_P1;HPM_P2
2022/10/18 00:00:33;;;;;;;13.63;4.90;;;;;;;10.29;100.00;102679.28;5053885;28;20362;-76
2022/10/18 00:02:58;;;;;;;17.50;5.40;;;;;;;10.27;100.00;102684.69;5054029;28;20025;-76
2022/10/18 00:05:24;;;;;;;11.25;5.13;;;;;;;10.27;100.00;102689.13;5052393;28;20033;-77
2022/10/18 00:07:49;;;;;;;14.38;5.80;;;;;;;10.26;100.00;102690.97;5054098;28;20057;-76
2022/10/18 00:10:14;;;;;;;12.70;5.20;;;;;;;10.24;100.00;102685.72;5054171;28;20025;-76
2022/10/18 00:12:40;;;;;;;18.95;5.97;;;;;;;10.20;100.00;102678.88;5053768;28;20399;-76
2022/10/18 00:15:06;;;;;;;12.55;4.85;;;;;;;10.12;100.00;102673.16;5052796;28;20033;-76
2022/10/18 00:17:36;;;;;;;8.85;3.90;;;;;;;10.06;100.00;102681.47;5053441;28;20041;-76
2022/10/18 00:20:03;;;;;;;8.73;4.50;;;;;;;10.01;100.00;102686.22;5053903;28;20067;-76
2022/10/18 00:22:29;;;;;;;8.30;3.65;;;;;;;9.96;100.00;102688.31;5053919;28;20556;-76
2022/10/18 00:24:54;;;;;;;6.80;3.53;;;;;;;9.91;100.00;102690.38;5052571;28;20076;-76
2022/10/18 00:27:19;;;;;;;7.55;3.58;;;;;;;9.85;100.00;102686.25;5053490;28;20068;-76
2022/10/18 00:29:45;;;;;;;9.75;4.25;;;;;;;9.78;100.00;102687.56;5052091;28;20074;-76
2022/10/18 00:32:13;;;;;;;7.97;3.47;;;;;;;9.71;100.00;102692.38;5053750;28;20111;-75
2022/10/18 00:34:39;;;;;;;16.30;4.85;;;;;;;9.66;100.00;102689.16;5053212;28;20090;-76
2022/10/18 00:37:05;;;;;;;6.60;4.35;;;;;;;9.62;100.00;102691.09;5053171;28;20036;-77
2022/10/18 00:39:30;;;;;;;8.93;4.50;;;;;;;9.57;100.00;102687.00;5053134;28;20033;-76
2022/10/18 00:41:56;;;;;;;11.48;5.18;;;;;;;9.51;100.00;102686.41;5053215;28;20033;-75
2022/10/18 00:44:24;;;;;;;11.02;5.15;;;;;;;9.47;100.00;102689.34;5053403;28;20087;-76
2022/10/18 00:46:51;;;;;;;9.38;5.05;;;;;;;9.43;100.00;102690.44;5053138;28;20381;-76
2022/10/18 00:49:26;;;;;;;7.63;4.40;;;;;;;9.35;100.00;102694.38;5053341;28;20037;-76
2022/10/18 00:52:03;;;;;;;8.20;4.30;;;;;;;9.31;100.00;102687.50;5053459;28;20457;-76
2022/10/18 00:54:31;;;;;;;5.68;3.40;;;;;;;9.24;100.00;102690.59;5052840;28;20108;-77
2022/10/18 00:56:57;;;;;;;12.80;4.90;;;;;;;9.17;100.00;102696.25;5053027;28;20116;-76
2022/10/18 00:59:23;;;;;;;13.60;5.35;;;;;;;9.15;100.00;102698.16;5053120;28;20033;-75
2022/10/18 01:01:49;;;;;;;13.05;4.97;;;;;;;9.16;100.00;102696.34;5051396;28;20037;-76
2022/10/18 01:04:16;;;;;;;10.35;4.65;;;;;;;9.18;100.00;102694.44;5051941;28;20039;-76
2022/10/18 01:06:58;;;;;;;8.50;4.03;;;;;;;9.14;100.00;102695.59;5051292;28;20426;-76
2022/10/18 01:09:26;;;;;;;9.95;4.20;;;;;;;9.07;100.00;102696.84;5053004;28;20035;-76
2022/10/18 01:12:21;;;;;;;9.93;4.50;;;;;;;9.02;100.00;102702.41;5052552;28;20064;-76
2022/10/18 01:15:00;;;;;;;12.30;5.22;;;;;;;8.98;100.00;102706.19;5041143;28;20059;-76
2022/10/18 01:17:46;;;;;;;11.40;4.78;;;;;;;9.00;100.00;102704.28;5052940;28;20045;-76
2022/10/18 01:20:34;;;;;;;12.70;5.28;;;;;;;9.07;100.00;102702.16;5052940;28;20028;-76
2022/10/18 01:23:06;;;;;;;10.55;5.05;;;;;;;9.03;100.00;102704.13;5051610;28;20037;-75
2022/10/18 01:25:34;;;;;;;9.00;4.75;;;;;;;9.02;100.00;102699.75;5052138;28;20126;-77
2022/10/18 01:28:05;;;;;;;9.60;4.53;;;;;;;8.98;100.00;102708.84;5052419;28;20056;-75
2022/10/18 01:30:34;;;;;;;7.72;4.43;;;;;;;8.91;100.00;102699.47;5052726;28;20032;-75
2022/10/18 01:33:08;;;;;;;5.35;3.60;;;;;;;8.82;100.00;102695.50;5052852;28;20036;-75
2022/10/18 01:35:39;;;;;;;5.70;3.67;;;;;;;8.76;100.00;102699.38;5050962;28;20021;-79
2022/10/18 01:38:10;;;;;;;8.02;4.18;;;;;;;8.72;100.00;102703.13;5052978;28;20074;-75
2022/10/18 01:40:38;;;;;;;6.35;4.32;;;;;;;8.71;100.00;102708.50;5052081;28;20126;-75
2022/10/18 01:43:04;;;;;;;6.43;3.97;;;;;;;8.70;100.00;102704.97;5052494;28;20021;-75
2022/10/18 01:45:31;;;;;;;10.30;4.85;;;;;;;8.69;100.00;102707.72;5051380;28;20041;-75
2022/10/18 01:47:58;;;;;;;12.80;5.10;;;;;;;8.66;100.00;102708.75;5050850;28;20041;-75
2022/10/18 01:50:29;;;;;;;15.05;5.65;;;;;;;8.63;100.00;102699.16;5052255;28;20454;-75
2022/10/18 01:52:54;;;;;;;8.77;4.78;;;;;;;8.62;100.00;102693.94;5051764;28;20029;-75
2022/10/18 01:55:29;;;;;;;12.52;5.03;;;;;;;8.64;100.00;102700.88;5052077;28;20063;-75
2022/10/18 01:58:02;;;;;;;10.65;5.72;;;;;;;8.65;100.00;102709.69;5052021;28;20108;-75
2022/10/18 02:00:39;;;;;;;7.90;5.30;;;;;;;8.60;100.00;102717.06;5052405;28;20032;-74
2022/10/18 02:03:20;;;;;;;13.48;5.10;;;;;;;8.55;100.00;102719.91;5052082;28;20029;-75
2022/10/18 02:06:01;;;;;;;13.87;6.47;;;;;;;8.48;100.00;102718.53;5050368;28;20029;-75
2022/10/18 02:08:34;;;;;;;8.98;5.38;;;;;;;8.46;100.00;102723.94;5051896;28;20035;-75
2022/10/18 02:11:04;;;;;;;10.48;6.20;;;;;;;8.45;100.00;102724.00;5051856;28;20354;-74
2022/10/18 02:13:35;;;;;;;15.65;8.20;;;;;;;8.42;100.00;102716.16;5052770;28;20116;-74
2022/10/18 02:16:08;;;;;;;11.52;6.72;;;;;;;8.38;100.00;102720.78;5053538;28;20039;-74
2022/10/18 02:18:38;;;;;;;21.23;8.57;;;;;;;8.38;100.00;102722.56;5056426;28;20481;-74
2022/10/18 02:21:06;;;;;;;17.40;8.13;;;;;;;8.41;100.00;102723.25;5055768;28;20029;-74
2022/10/18 02:23:33;;;;;;;18.27;7.95;;;;;;;8.41;100.00;102722.41;5054767;28;20448;-76
2022/10/18 02:25:59;;;;;;;20.85;8.65;;;;;;;8.39;100.00;102725.16;5055665;28;20029;-75
2022/10/18 02:28:25;;;;;;;15.23;7.93;;;;;;;8.39;100.00;102719.84;5056040;28;20029;-74
2022/10/18 02:31:09;;;;;;;16.88;7.93;;;;;;;8.35;100.00;102720.94;5055552;28;20029;-75
2022/10/18 02:33:44;;;;;;;12.93;6.15;;;;;;;8.28;100.00;102720.41;5056062;28;20083;-74
2022/10/18 02:36:25;;;;;;;11.00;6.72;;;;;;;8.24;100.00;102723.25;5055689;28;20029;-74
2022/10/18 02:38:57;;;;;;;10.32;6.13;;;;;;;8.20;100.00;102722.56;5055508;28;20120;-75
2022/10/18 02:41:26;;;;;;;11.05;5.85;;;;;;;8.16;100.00;102731.59;5055806;28;20151;-74
2022/10/18 02:43:52;;;;;;;11.30;5.78;;;;;;;8.13;100.00;102729.09;5055083;28;20116;-75
2022/10/18 02:46:19;;;;;;;14.35;7.43;;;;;;;8.09;100.00;102733.72;5054282;28;20029;-74
2022/10/18 02:48:44;;;;;;;8.82;5.18;;;;;;;8.06;100.00;102725.03;5054849;28;20429;-75
2022/10/18 02:51:10;;;;;;;12.23;6.00;;;;;;;8.03;100.00;102722.53;5055858;28;20033;-74
2022/10/18 02:53:35;;;;;;;8.73;5.30;;;;;;;8.00;100.00;102720.03;5055469;28;20033;-74
2022/10/18 02:56:02;;;;;;;10.77;6.30;;;;;;;7.96;100.00;102716.69;5054970;28;20083;-74
2022/10/18 02:58:27;;;;;;;13.10;6.45;;;;;;;7.94;100.00;102715.91;5055399;28;20029;-74
2022/10/18 03:00:53;;;;;;;10.30;6.10;;;;;;;7.90;100.00;102711.72;5055245;28;20037;-74
2022/10/18 03:03:18;;;;;;;9.70;5.68;;;;;;;7.88;100.00;102710.91;5055294;28;20044;-74
2022/10/18 03:05:43;;;;;;;9.65;5.57;;;;;;;7.83;100.00;102715.59;5055294;28;20033;-76
2022/10/18 03:08:09;;;;;;;11.77;6.30;;;;;;;7.79;100.00;102716.66;5054822;28;20496;-76
2022/10/18 03:10:34;;;;;;;9.18;4.80;;;;;;;7.75;100.00;102721.28;5055216;28;20103;-77
2022/10/18 03:13:00;;;;;;;9.23;5.18;;;;;;;7.70;100.00;102725.91;5054619;28;20086;-76
2022/10/18 03:15:25;;;;;;;7.47;5.30;;;;;;;7.66;100.00;102719.91;5055043;28;20037;-76
2022/10/18 03:17:50;;;;;;;11.40;5.63;;;;;;;7.63;100.00;102717.41;5054671;28;20052;-76
2022/10/18 03:20:16;;;;;;;15.93;7.15;;;;;;;7.63;100.00;102722.72;5055041;28;20051;-76
2022/10/18 03:22:41;;;;;;;13.80;7.05;;;;;;;7.68;100.00;102720.69;5055097;28;20033;-76
2022/10/18 03:25:07;;;;;;;10.27;6.30;;;;;;;7.69;100.00;102718.91;5054579;28;20392;-76
2022/10/18 03:27:32;;;;;;;12.77;6.07;;;;;;;7.66;100.00;102724.34;5053654;28;20469;-76
2022/10/18 03:29:58;;;;;;;10.05;5.80;;;;;;;7.65;100.00;102722.66;5054534;28;20069;-77
2022/10/18 03:32:24;;;;;;;10.57;6.00;;;;;;;7.64;100.00;102729.72;5054747;28;20040;-75
2022/10/18 03:34:49;;;;;;;12.48;6.30;;;;;;;7.61;100.00;102731.66;5054450;28;20029;-76
2022/10/18 03:37:14;;;;;;;10.77;5.78;;;;;;;7.59;100.00;102731.75;5052935;28;20362;-76
2022/10/18 03:39:39;;;;;;;11.85;5.82;;;;;;;7.54;100.00;102733.75;5054671;28;20072;-76
2022/10/18 03:42:05;;;;;;;10.30;6.40;;;;;;;7.51;100.00;102733.88;5053031;28;20033;-76
2022/10/18 03:44:30;;;;;;;11.27;5.18;;;;;;;7.47;100.00;102730.53;5054622;28;20492;-76
2022/10/18 03:46:55;;;;;;;10.75;6.28;;;;;;;7.44;100.00;102733.31;5054218;28;20472;-77
2022/10/18 03:49:21;;;;;;;10.63;4.95;;;;;;;7.41;100.00;102734.31;5053207;28;20397;-76
2022/10/18 03:51:46;;;;;;;14.93;7.50;;;;;;;7.39;100.00;102720.31;5054629;28;20142;-76
2022/10/18 03:54:11;;;;;;;16.67;7.13;;;;;;;7.39;100.00;102719.47;5054103;28;20025;-76
2022/10/18 03:56:37;;;;;;;9.68;5.82;;;;;;;7.36;100.00;102717.81;5054028;28;20033;-76
2022/10/18 03:59:03;;;;;;;9.60;6.13;;;;;;;7.32;100.00;102723.31;5053696;28;20033;-76
2022/10/18 04:01:29;;;;;;;12.98;6.68;;;;;;;7.28;100.00;102727.88;5054319;28;20532;-76
2022/10/18 04:03:54;;;;;;;10.52;5.13;;;;;;;7.23;100.00;102729.91;5053749;28;20122;-80
2022/10/18 04:06:20;;;;;;;11.23;5.10;;;;;;;7.19;100.00;102736.25;5054228;28;20044;-76
2022/10/18 04:08:45;;;;;;;8.65;4.78;;;;;;;7.17;100.00;102730.19;5054121;28;20122;-76
2022/10/18 04:11:11;;;;;;;12.80;6.45;;;;;;;7.20;100.00;102733.53;5053762;28;20057;-76
2022/10/18 04:13:36;;;;;;;7.43;4.97;;;;;;;7.21;100.00;102718.50;5053695;28;20095;-76
2022/10/18 04:16:02;;;;;;;14.15;6.18;;;;;;;7.17;100.00;102719.59;5053484;28;20032;-76
2022/10/18 04:18:27;;;;;;;8.35;4.40;;;;;;;7.12;100.00;102717.16;5053675;28;20056;-76
2022/10/18 04:20:52;;;;;;;9.82;4.90;;;;;;;7.09;100.00;102719.94;5053895;28;20037;-76
2022/10/18 04:23:18;;;;;;;6.35;4.82;;;;;;;7.07;100.00;102721.78;5053497;28;20373;-76
2022/10/18 04:25:43;;;;;;;8.70;4.28;;;;;;;7.05;100.00;102721.00;5053978;28;20515;-76
2022/10/18 04:28:09;;;;;;;5.53;3.88;;;;;;;7.04;100.00;102727.22;5052211;28;20025;-76
2022/10/18 04:30:34;;;;;;;8.07;4.35;;;;;;;7.04;100.00;102729.88;5053789;28;20060;-76
2022/10/18 04:32:59;;;;;;;11.27;5.68;;;;;;;7.11;100.00;102741.06;5053125;28;20108;-77
2022/10/18 04:35:26;;;;;;;15.18;6.07;;;;;;;7.16;100.00;102729.31;5053355;28;20086;-77
2022/10/18 04:37:52;;;;;;;11.82;5.55;;;;;;;7.19;100.00;102723.03;5052063;28;20037;-76
2022/10/18 04:40:18;;;;;;;14.02;6.10;;;;;;;7.19;100.00;102730.97;5053040;28;20036;-76
2022/10/18 04:42:44;;;;;;;13.60;5.95;;;;;;;7.17;100.00;102732.84;5053534;28;20036;-76
2022/10/18 04:45:09;;;;;;;10.85;4.88;;;;;;;7.11;100.00;102747.19;5053041;28;20032;-77
2022/10/18 04:47:35;;;;;;;7.68;4.70;;;;;;;7.05;100.00;102739.53;5053394;28;20092;-76
2022/10/18 04:50:00;;;;;;;12.63;6.00;;;;;;;7.01;100.00;102743.25;5053294;28;20061;-76
2022/10/18 04:52:25;;;;;;;15.75;6.82;;;;;;;7.03;100.00;102744.03;5053208;28;20484;-76
2022/10/18 04:54:51;;;;;;;14.20;6.60;;;;;;;7.07;100.00;102748.25;5053235;28;20025;-76
2022/10/18 04:57:16;;;;;;;15.35;6.80;;;;;;;7.05;100.00;102756.28;5052907;28;20036;-76
2022/10/18 04:59:41;;;;;;;10.95;6.03;;;;;;;7.03;100.00;102755.50;5053186;28;20036;-76
2022/10/18 05:02:07;;;;;;;19.80;6.85;;;;;;;7.01;100.00;102748.53;5053053;28;20036;-76
2022/10/18 05:04:32;;;;;;;11.15;6.13;;;;;;;6.96;100.00;102750.56;5052915;28;20033;-76
2022/10/18 05:06:58;;;;;;;12.43;6.20;;;;;;;6.91;100.00;102750.72;5051874;28;20420;-76
2022/10/18 05:09:23;;;;;;;9.88;4.72;;;;;;;6.86;100.00;102763.31;5052677;28;20135;-75
2022/10/18 05:11:49;;;;;;;11.38;5.18;;;;;;;6.84;100.00;102773.13;5052934;28;20354;-76
2022/10/18 05:14:14;;;;;;;11.15;4.70;;;;;;;6.77;100.00;102772.50;5052622;28;20029;-76
2022/10/18 05:16:39;;;;;;;8.63;4.45;;;;;;;6.74;100.00;102774.44;5052700;28;20040;-76
2022/10/18 05:19:05;;;;;;;10.77;4.85;;;;;;;6.69;100.00;102778.16;5034684;28;20049;-80
2022/10/18 05:21:31;;;;;;;9.15;4.97;;;;;;;6.65;100.00;102773.06;5052743;28;20472;-76
2022/10/18 05:23:56;;;;;;;9.73;5.25;;;;;;;6.64;100.00;102766.91;5052788;28;20029;-75
2022/10/18 05:26:22;;;;;;;10.07;5.22;;;;;;;6.62;100.00;102768.75;5052435;28;20098;-75
2022/10/18 05:28:49;;;;;;;9.90;4.95;;;;;;;6.58;100.00;102759.22;5052765;28;20057;-75
2022/10/18 05:31:14;;;;;;;8.77;4.72;;;;;;;6.58;100.00;102774.25;5052072;28;20025;-75
2022/10/18 05:33:40;;;;;;;7.63;4.68;;;;;;;6.56;100.00;102779.59;5052603;28;20035;-75
2022/10/18 05:36:06;;;;;;;9.68;5.10;;;;;;;6.52;100.00;102772.72;5047793;28;20320;-75
2022/10/18 05:38:31;;;;;;;8.23;4.90;;;;;;;6.51;100.00;102778.94;5049221;28;20485;-74
2022/10/18 05:40:57;;;;;;;13.77;5.72;;;;;;;6.56;100.00;102776.09;5049884;28;20120;-74
2022/10/18 05:43:27;;;;;;;11.93;5.80;;;;;;;6.57;100.00;102778.69;5049272;28;20029;-75
2022/10/18 05:45:52;;;;;;;6.25;4.20;;;;;;;6.55;100.00;102787.59;5048252;28;20469;-75
2022/10/18 05:48:20;;;;;;;10.02;4.30;;;;;;;6.48;100.00;102793.16;5049173;28;20037;-76
2022/10/18 05:50:46;;;;;;;10.10;5.10;;;;;;;6.46;100.00;102789.69;5048671;28;20041;-75
2022/10/18 05:53:11;;;;;;;12.32;5.75;;;;;;;6.48;100.00;102787.00;5049398;28;20032;-76
2022/10/18 05:55:37;;;;;;;10.73;5.20;;;;;;;6.47;100.00;102787.94;5049544;28;20051;-76
2022/10/18 05:58:03;;;;;;;9.70;4.38;;;;;;;6.44;100.00;102790.69;5048273;28;20106;-76
2022/10/18 06:00:28;;;;;;;6.55;4.50;;;;;;;6.38;100.00;102802.38;5048580;28;20500;-74
2022/10/18 06:02:54;;;;;;;8.95;4.60;;;;;;;6.33;100.00;102801.72;5049429;28;20458;-75
2022/10/18 06:05:19;;;;;;;7.10;3.97;;;;;;;6.33;100.00;102807.88;5049012;28;20094;-74
2022/10/18 06:07:44;;;;;;;13.85;6.20;;;;;;;6.31;100.00;102800.91;5049563;28;20044;-74
2022/10/18 06:10:10;;;;;;;7.43;4.20;;;;;;;6.30;100.00;102804.47;5049229;28;20036;-73
2022/10/18 06:12:35;;;;;;;8.15;4.32;;;;;;;6.31;100.00;102808.84;5048437;28;20041;-75
2022/10/18 06:15:01;;;;;;;9.57;4.80;;;;;;;6.30;100.00;102813.28;5049454;28;20105;-74
2022/10/18 06:17:26;;;;;;;9.60;5.00;;;;;;;6.31;100.00;102827.34;5046011;28;20469;-73
2022/10/18 06:19:51;;;;;;;8.50;4.40;;;;;;;6.34;100.00;102821.94;5050923;28;20425;-75
2022/10/18 06:22:17;;;;;;;11.38;4.40;;;;;;;6.34;100.00;102830.75;5051489;28;20115;-75
2022/10/18 06:24:42;;;;;;;8.27;4.28;;;;;;;6.33;100.00;102818.44;5052191;28;20168;-74
2022/10/18 06:27:08;;;;;;;8.93;4.60;;;;;;;6.33;100.00;102829.03;5052160;28;20495;-75
2022/10/18 06:29:37;;;;;;;9.88;5.05;;;;;;;6.32;100.00;102829.94;5051615;28;20377;-75
2022/10/18 06:32:04;;;;;;;9.35;4.20;;;;;;;6.34;100.00;102841.31;5052197;28;20033;-75
2022/10/18 06:34:29;;;;;;;8.05;4.72;;;;;;;6.32;100.00;102829.09;5051769;28;20044;-75
2022/10/18 06:36:55;;;;;;;6.43;4.18;;;;;;;6.34;100.00;102835.16;5051931;28;20033;-75
2022/10/18 06:39:20;;;;;;;6.40;4.60;;;;;;;6.33;100.00;102833.47;5051394;28;20036;-76
2022/10/18 06:41:45;;;;;;;8.40;4.60;;;;;;;6.35;100.00;102834.25;5051985;28;20040;-75
2022/10/18 06:44:13;;;;;;;7.72;4.88;;;;;;;6.37;100.00;102845.59;5052057;28;20071;-75
2022/10/18 06:46:40;;;;;;;7.13;4.43;;;;;;;6.39;100.00;102845.53;5051461;28;20069;-75
2022/10/18 06:49:05;;;;;;;8.48;4.28;;;;;;;6.43;100.00;102852.44;5051952;28;20029;-75
2022/10/18 06:51:30;;;;;;;7.28;4.03;;;;;;;6.42;100.00;102842.78;5051552;28;20374;-75
2022/10/18 06:53:56;;;;;;;6.65;4.18;;;;;;;6.43;100.00;102852.44;5052043;28;20037;-75
2022/10/18 06:56:21;;;;;;;9.23;4.03;;;;;;;6.48;100.00;102856.63;5051145;28;20029;-75
2022/10/18 06:58:46;;;;;;;8.10;4.30;;;;;;;6.51;100.00;102856.50;5051786;28;20041;-75
2022/10/18 07:01:14;;;;;;;6.13;3.28;;;;;;;6.53;100.00;102856.44;5052165;28;20029;-75
2022/10/18 07:03:40;;;;;;;8.35;3.90;;;;;;;6.61;100.00;102858.75;5054987;28;20460;-75
2022/10/18 07:06:09;;;;;;;6.15;3.58;;;;;;;6.65;100.00;102858.56;5055252;28;20124;-75
2022/10/18 07:08:35;;;;;;;5.40;3.42;;;;;;;6.67;100.00;102858.50;5054453;28;20060;-75
2022/10/18 07:11:00;;;;;;;11.50;4.65;;;;;;;6.75;100.00;102863.44;5055331;28;20033;-75
2022/10/18 07:13:30;;;;;;;7.35;4.00;;;;;;;6.79;100.00;102867.69;5054533;28;20029;-76
2022/10/18 07:16:16;;;;;;;12.65;4.70;;;;;;;6.86;100.00;102872.66;5055007;28;20036;-75
2022/10/18 07:18:45;;;;;;;10.02;4.53;;;;;;;6.92;100.00;102876.00;5054795;28;20048;-75
2022/10/18 07:21:13;;;;;;;8.88;3.70;;;;;;;6.99;100.00;102878.31;5054693;28;20029;-75
2022/10/18 07:23:40;;;;;;;11.55;4.57;;;;;;;7.09;100.00;102877.91;5054332;28;20440;-75
2022/10/18 07:26:26;;;;;;;4.80;3.30;;;;;;;7.18;100.00;102881.03;5055337;28;20037;-75
2022/10/18 07:28:56;;;;;;;7.20;3.22;;;;;;;7.24;100.00;102894.00;5054896;28;20029;-75
2022/10/18 07:31:22;;;;;;;6.47;3.80;;;;;;;7.36;100.00;102891.72;5055048;28;20119;-75
2022/10/18 07:33:48;;;;;;;11.45;3.63;;;;;;;7.47;100.00;102897.41;5054522;28;20063;-75
2022/10/18 07:36:13;;;;;;;5.97;3.42;;;;;;;7.62;100.00;102903.81;5054585;28;20477;-75
2022/10/18 07:38:39;;;;;;;8.70;3.60;;;;;;;7.79;100.00;102918.91;5054125;28;20053;-75
2022/10/18 07:41:06;;;;;;;5.47;2.95;;;;;;;7.92;100.00;102911.28;5054411;28;20035;-75
2022/10/18 07:43:32;;;;;;;7.05;3.20;;;;;;;8.06;100.00;102907.97;5054372;28;20108;-76
2022/10/18 07:46:00;;;;;;;8.60;3.60;;;;;;;8.24;100.00;102911.53;5054605;28;20488;-75
2022/10/18 07:48:27;;;;;;;7.80;3.00;;;;;;;8.44;100.00;102922.09;5053304;28;20124;-75
2022/10/18 07:50:53;;;;;;;8.50;3.42;;;;;;;8.67;100.00;102919.25;5054652;28;20112;-75
2022/10/18 07:53:18;;;;;;;10.07;3.33;;;;;;;8.85;100.00;102917.47;5054199;28;20453;-75
2022/10/18 07:55:44;;;;;;;7.95;3.40;;;;;;;9.01;100.00;102926.41;5052805;28;20029;-75
2022/10/18 07:58:12;;;;;;;5.75;2.97;;;;;;;9.18;100.00;102928.19;5054394;28;20056;-75
2022/10/18 08:00:38;;;;;;;8.30;2.85;;;;;;;9.37;100.00;102935.22;5053599;28;20477;-75
2022/10/18 08:03:03;;;;;;;6.65;2.50;;;;;;;9.53;100.00;102936.13;5054323;28;20037;-75
2022/10/18 08:05:29;;;;;;;5.85;2.50;;;;;;;9.74;100.00;102938.59;5053897;28;20033;-75
2022/10/18 08:07:54;;;;;;;7.00;2.60;;;;;;;9.95;100.00;102925.94;5052400;28;20044;-75
2022/10/18 08:10:22;;;;;;;6.35;2.83;;;;;;;10.16;100.00;102926.53;5054140;28;20103;-75
2022/10/18 08:12:48;;;;;;;11.75;4.05;;;;;;;10.38;100.00;102931.56;5053194;28;20025;-75
2022/10/18 08:15:14;;;;;;;12.63;3.35;;;;;;;10.57;100.00;102936.69;5053738;28;20056;-76
2022/10/18 08:17:39;;;;;;;9.48;3.50;;;;;;;10.71;100.00;102931.41;5052174;28;20053;-76
2022/10/18 08:20:05;;;;;;;10.13;3.70;;;;;;;10.85;100.00;102930.63;5053956;28;20043;-75
2022/10/18 08:22:30;;;;;;;9.25;3.10;;;;;;;11.01;100.00;102933.22;5053924;28;20428;-75
2022/10/18 08:24:56;;;;;;;11.30;4.05;;;;;;;11.19;100.00;102936.59;5052184;28;20037;-75
2022/10/18 08:27:24;;;;;;;10.40;4.25;;;;;;;11.39;100.00;102940.75;5053781;28;20032;-76
2022/10/18 08:29:49;;;;;;;12.95;3.75;;;;;;;11.61;100.00;102950.09;5053360;28;20033;-76
2022/10/18 08:32:14;;;;;;;13.63;2.97;;;;;;;11.71;100.00;102951.22;5052642;28;20029;-76
2022/10/18 08:34:40;;;;;;;10.95;3.05;;;;;;;11.88;100.00;102944.84;5053276;28;20426;-76
2022/10/18 08:37:05;;;;;;;10.82;3.10;;;;;;;12.09;100.00;102944.47;5053562;28;20527;-76
2022/10/18 08:39:30;;;;;;;8.52;2.95;;;;;;;12.33;100.00;102950.03;5053301;28;20129;-75
2022/10/18 08:41:56;;;;;;;15.20;2.88;;;;;;;12.49;100.00;102945.41;5053480;28;20112;-75
2022/10/18 08:44:31;;;;;;;14.85;2.20;;;;;;;12.76;100.00;102944.56;5053545;28;20112;-75
2022/10/18 08:47:05;;;;;;;11.60;2.17;;;;;;;13.10;100.00;102947.63;5052980;28;20043;-75
2022/10/18 08:49:38;;;;;;;18.20;2.67;;;;;;;13.65;100.00;102943.00;5053454;28;20150;-75
2022/10/18 08:52:18;;;;;;;11.45;2.15;;;;;;;14.64;100.00;102951.97;5053308;28;20040;-75
2022/10/18 08:55:08;;;;;;;12.18;2.13;;;;;;;15.90;100.00;102943.25;5053066;28;20489;-75
2022/10/18 08:57:34;;;;;;;13.10;2.30;;;;;;;17.01;100.00;102924.25;5053390;28;20396;-75
2022/10/18 09:00:01;;;;;;;12.18;1.83;;;;;;;18.12;100.00;102916.41;5052849;28;20032;-75
2022/10/18 09:02:45;;;;;;;10.82;2.33;;;;;;;19.04;100.00;102923.28;5052927;28;20385;-75
2022/10/18 09:05:51;;;;;;;12.60;2.70;;;;;;;20.11;100.00;102924.75;5053160;28;20029;-75
2022/10/18 09:08:36;;;;;;;10.10;2.05;;;;;;;21.46;77.33;102923.69;5037760;28;20051;-75
2022/10/18 09:11:40;;;;;;;11.60;2.05;;;;;;;22.00;68.02;102923.44;5053002;28;20036;-75
2022/10/18 09:14:43;;;;;;;12.13;2.17;;;;;;;23.02;58.12;102930.50;5051700;28;20473;-75
2022/10/18 09:17:24;;;;;;;11.60;2.00;;;;;;;23.47;56.65;102929.09;5052738;28;20029;-75
2022/10/18 09:20:02;;;;;;;15.17;2.17;;;;;;;23.89;53.28;102929.81;5052647;28;20036;-75
2022/10/18 09:22:52;;;;;;;6.95;1.60;;;;;;;24.38;50.54;102939.53;5052904;28;20473;-75
2022/10/18 09:25:25;;;;;;;8.95;1.88;;;;;;;24.53;50.32;102936.88;5052840;28;20029;-75
2022/10/18 09:28:15;;;;;;;9.55;1.83;;;;;;;25.08;46.79;102932.19;5052099;28;20381;-75
2022/10/18 09:30:56;;;;;;;9.07;1.63;;;;;;;25.37;44.50;102946.91;5052350;28;20028;-78
2022/10/18 09:33:33;;;;;;;9.32;2.00;;;;;;;24.95;46.69;102946.44;5052844;28;20021;-75
2022/10/18 09:36:05;;;;;;;12.27;2.00;;;;;;;25.02;46.16;102939.25;5052239;28;20021;-75
2022/10/18 09:38:37;;;;;;;7.25;1.50;;;;;;;25.21;46.41;102948.72;5051264;28;20021;-75
2022/10/18 09:41:12;;;;;;;7.65;1.83;;;;;;;24.92;47.02;102953.09;5052084;28;20029;-75
2022/10/18 09:43:49;;;;;;;7.18;1.90;;;;;;;25.29;46.36;102955.97;5052310;28;20025;-75
2022/10/18 09:46:17;;;;;;;14.27;2.53;;;;;;;25.43;46.50;102960.63;5052166;28;20366;-75
2022/10/18 09:49:24;;;;;;;6.13;1.73;;;;;;;24.80;47.69;102962.75;5051832;28;20397;-79
2022/10/18 09:51:52;;;;;;;7.95;1.67;;;;;;;24.46;45.66;102955.81;5009894;28;20038;-75
2022/10/18 09:54:50;;;;;;;5.57;1.65;;;;;;;22.37;50.66;102956.59;5010581;28;20068;-75
2022/10/18 09:57:22;;;;;;;8.82;1.42;;;;;;;20.94;57.94;102965.13;5025103;28;20041;-74
2022/10/18 09:59:49;;;;;;;6.45;1.60;;;;;;;19.95;69.11;102975.91;5051938;28;20029;-75
2022/10/18 10:02:23;;;;;;;8.02;1.50;;;;;;;19.40;63.23;102974.75;5052341;28;20036;-74
2022/10/18 10:04:50;;;;;;;11.02;1.95;;;;;;;18.58;72.91;102966.13;5050768;28;20037;-75
2022/10/18 10:07:22;;;;;;;8.63;1.42;;;;;;;17.86;73.66;102968.06;5052330;28;20032;-75
2022/10/18 10:10:05;;;;;;;7.97;1.88;;;;;;;17.37;71.40;102965.09;5051653;28;20058;-75
2022/10/18 10:12:35;;;;;;;6.45;1.80;;;;;;;16.89;84.78;102971.00;5034814;28;20056;-75
2022/10/18 10:15:19;;;;;;;12.52;1.52;;;;;;;16.63;88.65;102976.69;5029082;28;20033;-75
2022/10/18 10:18:00;;;;;;;11.20;1.65;;;;;;;16.46;88.81;102986.13;5029076;28;20494;-75
2022/10/18 10:20:55;;;;;;;9.93;1.48;;;;;;;16.44;89.55;102985.41;5029742;28;20084;-75
2022/10/18 10:23:25;;;;;;;8.63;1.65;;;;;;;16.52;97.69;102988.31;5025626;28;20045;-76
2022/10/18 10:25:53;;;;;;;7.82;1.65;;;;;;;16.82;95.31;102977.84;5029142;28;20449;-75
2022/10/18 10:28:23;;;;;;;7.85;1.52;;;;;;;17.02;83.81;102978.91;5029168;28;20401;-76
2022/10/18 10:30:49;;;;;;;5.72;1.38;;;;;;;16.90;89.43;102975.41;5029340;28;20044;-76
2022/10/18 10:33:36;;;;;;;7.53;1.20;;;;;;;16.79;94.41;102984.31;5029472;28;20445;-75
2022/10/18 10:36:05;;;;;;;7.18;1.33;;;;;;;16.63;94.53;102991.94;5028631;28;20080;-75
2022/10/18 10:38:31;;;;;;;5.88;1.35;;;;;;;16.51;84.44;102992.00;5035002;28;20052;-74
2022/10/18 10:40:57;;;;;;;8.10;1.65;;;;;;;16.38;90.93;102996.66;5032894;28;20379;-77
2022/10/18 10:43:28;;;;;;;6.60;1.38;;;;;;;16.22;84.81;102989.84;5032939;28;20061;-75
2022/10/18 10:46:10;;;;;;;12.57;1.83;;;;;;;16.05;88.80;102993.03;5032735;28;20115;-78
2022/10/18 10:48:45;;;;;;;9.27;1.80;;;;;;;15.94;92.57;103007.31;5032805;28;20029;-76
2022/10/18 10:51:11;;;;;;;9.43;1.73;;;;;;;15.89;94.49;103001.47;5032285;28;20830;-76
2022/10/18 10:53:37;;;;;;;6.93;1.30;;;;;;;15.83;94.62;103002.78;5032542;28;20472;-76
2022/10/18 10:56:04;;;;;;;6.90;1.63;;;;;;;15.79;87.57;102997.78;5032390;28;20484;-77
2022/10/18 10:58:36;;;;;;;4.68;1.30;;;;;;;15.80;88.97;103004.88;5032824;28;20101;-76
2022/10/18 11:01:17;;;;;;;7.22;1.20;;;;;;;15.77;85.81;103013.13;5031968;28;20496;-76
2022/10/18 11:03:46;;;;;;;5.10;1.30;;;;;;;15.75;83.77;103009.69;5032937;28;20036;-76
2022/10/18 11:06:30;;;;;;;6.78;1.13;;;;;;;15.74;84.42;103016.06;5031995;28;20394;-77
2022/10/18 11:09:00;;;;;;;6.05;1.40;;;;;;;15.75;86.64;103012.38;5032530;28;20037;-76
2022/10/18 11:11:32;;;;;;;7.70;1.33;;;;;;;15.75;86.27;103012.38;5032208;28;20512;-76
2022/10/18 11:14:08;;;;;;;8.27;1.10;;;;;;;15.77;82.25;103013.97;5033446;28;20469;-76
2022/10/18 11:17:04;;;;;;;7.07;1.48;;;;;;;15.81;83.54;103015.50;5048553;28;20029;-76
2022/10/18 11:19:43;;;;;;;4.25;1.40;;;;;;;15.84;85.64;103015.25;5054108;28;20048;-76
2022/10/18 11:22:16;;;;;;;5.80;1.52;;;;;;;15.89;86.01;103017.56;5054378;28;20048;-76
2022/10/18 11:24:42;;;;;;;5.60;1.33;;;;;;;15.94;84.31;103018.03;5054967;28;20047;-76
2022/10/18 11:27:18;;;;;;;5.65;1.48;;;;;;;16.00;84.04;103022.06;5054314;28;20037;-76
2022/10/18 11:29:48;;;;;;;5.40;1.48;;;;;;;16.05;85.73;103019.91;5054877;28;20061;-76